createdAt,value
2023-03-15T00:00:14.897Z,7
2023-03-15T00:01:14.741Z,7
2023-03-15T00:02:15.395Z,7
2023-03-15T00:03:14.183Z,7
2023-03-15T00:04:14.688Z,7
2023-03-15T00:05:14.628Z,7
2023-03-15T00:06:14.694Z,7
2023-03-15T00:07:14.811Z,7
2023-03-15T00:09:14.240Z,7
2023-03-15T00:10:14.489Z,7
2023-03-15T00:11:14.440Z,7
2023-03-15T00:12:14.643Z,7
2023-03-15T00:13:14.900Z,7
2023-03-15T00:14:14.240Z,7
2023-03-15T00:15:14.471Z,7
2023-03-15T00:16:14.724Z,7
2023-03-15T00:17:14.965Z,8
2023-03-15T00:18:14.142Z,8
2023-03-15T00:19:14.410Z,8
2023-03-15T00:20:14.269Z,8
2023-03-15T00:21:14.713Z,8
2023-03-15T00:22:15.081Z,11
2023-03-15T00:23:14.446Z,11
2023-03-15T00:24:14.734Z,11
2023-03-15T00:25:14.856Z,11
2023-03-15T00:26:14.165Z,11
2023-03-15T00:27:14.642Z,5
2023-03-15T00:28:14.819Z,5
2023-03-15T00:29:15.083Z,5
2023-03-15T00:30:14.332Z,5
2023-03-15T00:31:14.939Z,5
2023-03-15T00:32:15.027Z,8
2023-03-15T00:33:14.018Z,8
2023-03-15T00:34:14.434Z,8
2023-03-15T00:35:14.586Z,8
2023-03-15T00:36:15.128Z,8
2023-03-15T00:37:14.170Z,9
2023-03-15T00:38:14.518Z,9
2023-03-15T00:39:14.885Z,9
2023-03-15T00:40:15.150Z,9
2023-03-15T00:41:14.463Z,9
2023-03-15T00:42:15.019Z,9
2023-03-15T00:43:15.083Z,9
2023-03-15T00:44:14.600Z,9
2023-03-15T00:45:14.635Z,9
2023-03-15T00:46:15.570Z,9
2023-03-15T00:47:14.302Z,9
2023-03-15T00:48:14.479Z,9
2023-03-15T00:49:14.922Z,9
2023-03-15T00:50:14.223Z,9
2023-03-15T00:51:14.685Z,9
2023-03-15T00:52:15.364Z,13
2023-03-15T00:53:14.390Z,13
2023-03-15T00:54:14.675Z,13
2023-03-15T00:55:15.864Z,13
2023-03-15T00:56:14.442Z,13
2023-03-15T00:57:14.476Z,8
2023-03-15T00:58:15.751Z,8
2023-03-15T00:59:15.088Z,8
2023-03-15T01:00:14.054Z,8
2023-03-15T01:01:14.812Z,8
2023-03-15T01:02:15.307Z,8
2023-03-15T01:03:14.469Z,8
2023-03-15T01:04:14.418Z,8
2023-03-15T01:05:14.535Z,8
2023-03-15T01:06:14.331Z,8
2023-03-15T01:07:14.499Z,9
2023-03-15T01:08:15.000Z,9
2023-03-15T01:09:13.908Z,9
2023-03-15T01:10:14.443Z,9
2023-03-15T01:11:14.867Z,9
2023-03-15T01:12:15.021Z,11
2023-03-15T01:13:14.411Z,11
2023-03-15T01:14:14.610Z,11
2023-03-15T01:15:15.065Z,11
2023-03-15T01:16:14.965Z,11
2023-03-15T01:17:14.702Z,9
2023-03-15T01:18:15.149Z,9
2023-03-15T01:19:14.106Z,9
2023-03-15T01:20:14.435Z,9
2023-03-15T01:21:14.637Z,9
2023-03-15T01:22:15.064Z,11
2023-03-15T01:23:14.389Z,11
2023-03-15T01:24:14.548Z,11
2023-03-15T01:25:14.920Z,11
2023-03-15T01:26:15.215Z,11
2023-03-15T01:27:14.522Z,9
2023-03-15T01:28:14.643Z,9
2023-03-15T01:29:14.950Z,9
2023-03-15T01:30:15.308Z,9
2023-03-15T01:31:14.764Z,9
2023-03-15T01:32:15.187Z,8
2023-03-15T01:33:14.556Z,8
2023-03-15T01:34:15.274Z,8
2023-03-15T01:35:14.387Z,8
2023-03-15T01:36:14.767Z,8
2023-03-15T01:37:14.826Z,12
2023-03-15T01:38:15.211Z,12
2023-03-15T01:39:14.146Z,12
2023-03-15T01:40:14.702Z,12
2023-03-15T01:41:14.436Z,12
2023-03-15T01:42:15.097Z,17
2023-03-15T01:43:14.413Z,17
2023-03-15T01:44:14.284Z,17
2023-03-15T01:45:14.638Z,17
2023-03-15T01:46:15.279Z,17
2023-03-15T01:47:14.813Z,17
2023-03-15T01:48:14.410Z,17
2023-03-15T01:49:14.761Z,17
2023-03-15T01:50:14.761Z,17
2023-03-15T01:51:14.312Z,17
2023-03-15T01:52:14.434Z,13
2023-03-15T01:53:14.691Z,13
2023-03-15T01:54:15.267Z,13
2023-03-15T01:55:14.454Z,13
2023-03-15T01:56:14.765Z,13
2023-03-15T01:57:14.987Z,14
2023-03-15T01:58:14.220Z,14
2023-03-15T01:59:14.322Z,14
2023-03-15T02:00:14.782Z,14
2023-03-15T02:01:14.780Z,14
2023-03-15T02:02:15.159Z,13
2023-03-15T02:03:14.807Z,13
2023-03-15T02:04:14.319Z,13
2023-03-15T02:05:14.513Z,13
2023-03-15T02:06:14.579Z,13
2023-03-15T02:07:14.783Z,14
2023-03-15T02:08:15.141Z,14
2023-03-15T02:09:14.270Z,14
2023-03-15T02:10:14.475Z,14
2023-03-15T02:11:14.309Z,14
2023-03-15T02:12:14.799Z,12
2023-03-15T02:13:14.925Z,12
2023-03-15T02:14:15.240Z,12
2023-03-15T02:15:14.345Z,12
2023-03-15T02:16:15.029Z,12
2023-03-15T02:17:15.015Z,12
2023-03-15T02:18:14.385Z,12
2023-03-15T02:19:14.527Z,12
2023-03-15T02:20:14.868Z,12
2023-03-15T02:21:15.111Z,12
2023-03-15T02:22:14.154Z,8
2023-03-15T02:23:14.409Z,8
2023-03-15T02:24:14.645Z,8
2023-03-15T02:25:15.070Z,8
2023-03-15T02:26:14.516Z,8
2023-03-15T02:27:14.794Z,9
2023-03-15T02:28:14.819Z,9
2023-03-15T02:29:15.135Z,9
2023-03-15T02:30:14.341Z,9
2023-03-15T02:31:15.003Z,9
2023-03-15T02:32:15.248Z,12
2023-03-15T02:33:14.863Z,12
2023-03-15T02:34:14.200Z,12
2023-03-15T02:35:14.758Z,12
2023-03-15T02:36:15.254Z,12
2023-03-15T02:37:14.983Z,15
2023-03-15T02:38:14.455Z,15
2023-03-15T02:39:14.367Z,15
2023-03-15T02:40:14.845Z,15
2023-03-15T02:41:14.411Z,15
2023-03-15T02:42:14.848Z,7
2023-03-15T02:43:14.888Z,7
2023-03-15T02:44:14.436Z,7
2023-03-15T02:45:14.486Z,7
2023-03-15T02:46:14.778Z,7
2023-03-15T02:47:14.531Z,6
2023-03-15T02:48:14.632Z,6
2023-03-15T02:49:15.024Z,6
2023-03-15T02:50:14.236Z,6
2023-03-15T02:51:14.880Z,6
2023-03-15T02:52:14.880Z,3
2023-03-15T02:53:14.812Z,3
2023-03-15T02:54:14.325Z,3
2023-03-15T02:55:14.226Z,3
2023-03-15T02:56:14.568Z,3
2023-03-15T02:57:14.780Z,4
2023-03-15T02:58:15.282Z,4
2023-03-15T02:59:14.275Z,4
2023-03-15T03:00:14.603Z,4
2023-03-15T03:01:15.023Z,4
2023-03-15T03:02:15.196Z,8
2023-03-15T03:03:15.224Z,8
2023-03-15T03:04:14.425Z,8
2023-03-15T03:05:14.372Z,8
2023-03-15T03:06:15.160Z,8
2023-03-15T03:07:14.351Z,5
2023-03-15T03:08:14.482Z,5
2023-03-15T03:09:14.779Z,5
2023-03-15T03:10:14.749Z,5
2023-03-15T03:11:14.472Z,5
2023-03-15T03:12:14.566Z,6
2023-03-15T03:13:14.979Z,6
2023-03-15T03:14:15.112Z,6
2023-03-15T03:15:14.472Z,6
2023-03-15T03:16:15.042Z,6
2023-03-15T03:17:15.197Z,7
2023-03-15T03:18:14.433Z,7
2023-03-15T03:19:14.468Z,7
2023-03-15T03:20:14.817Z,7
2023-03-15T03:21:14.840Z,7
2023-03-15T03:22:14.488Z,12
2023-03-15T03:23:14.543Z,12
2023-03-15T03:24:14.439Z,12
2023-03-15T03:25:15.065Z,12
2023-03-15T03:26:14.415Z,12
2023-03-15T03:27:14.680Z,9
2023-03-15T03:28:14.889Z,9
2023-03-15T03:29:14.024Z,9
2023-03-15T03:30:14.314Z,9
2023-03-15T03:31:15.181Z,9
2023-03-15T03:32:14.859Z,7
2023-03-15T03:33:14.287Z,7
2023-03-15T03:34:14.527Z,7
2023-03-15T03:35:16.150Z,7
2023-03-15T03:36:14.359Z,7
2023-03-15T03:37:14.479Z,8
2023-03-15T03:38:14.531Z,8
2023-03-15T03:39:14.591Z,8
2023-03-15T03:40:14.775Z,8
2023-03-15T03:41:15.189Z,8
2023-03-15T03:42:14.193Z,11
2023-03-15T03:43:14.543Z,11
2023-03-15T03:44:14.951Z,11
2023-03-15T03:45:15.038Z,11
2023-03-15T03:46:15.576Z,11
2023-03-15T03:47:14.342Z,13
2023-03-15T03:48:14.345Z,13
2023-03-15T03:49:14.909Z,13
2023-03-15T03:50:15.038Z,13
2023-03-15T03:51:14.156Z,13
2023-03-15T03:52:14.483Z,8
2023-03-15T03:53:14.820Z,8
2023-03-15T03:54:17.170Z,8
2023-03-15T03:55:14.345Z,8
2023-03-15T03:56:14.822Z,8
2023-03-15T03:57:14.933Z,9
2023-03-15T03:58:14.221Z,9
2023-03-15T03:59:14.950Z,9
2023-03-15T04:00:14.845Z,9
2023-03-15T04:01:14.249Z,9
2023-03-15T04:02:14.489Z,11
2023-03-15T04:03:14.742Z,11
2023-03-15T04:04:15.234Z,11
2023-03-15T04:05:14.081Z,11
2023-03-15T04:06:14.916Z,11
2023-03-15T04:07:16.634Z,8
2023-03-15T04:08:14.963Z,8
2023-03-15T04:09:14.210Z,8
2023-03-15T04:10:14.410Z,8
2023-03-15T04:11:14.765Z,8
2023-03-15T04:12:14.797Z,9
2023-03-15T04:13:14.543Z,9
2023-03-15T04:14:14.740Z,9
2023-03-15T04:15:14.366Z,9
2023-03-15T04:16:14.933Z,9
2023-03-15T04:17:14.568Z,11
2023-03-15T04:18:14.593Z,11
2023-03-15T04:19:14.754Z,11
2023-03-15T04:20:14.282Z,11
2023-03-15T04:21:14.334Z,11
2023-03-15T04:22:14.753Z,7
2023-03-15T04:23:15.108Z,7
2023-03-15T04:24:14.445Z,7
2023-03-15T04:25:14.789Z,7
2023-03-15T04:26:14.300Z,7
2023-03-15T04:27:14.757Z,7
2023-03-15T04:28:14.858Z,7
2023-03-15T04:29:14.791Z,7
2023-03-15T04:30:15.033Z,7
2023-03-15T04:31:15.391Z,7
2023-03-15T04:32:14.276Z,6
2023-03-15T04:33:14.392Z,6
2023-03-15T04:34:14.795Z,6
2023-03-15T04:35:14.985Z,6
2023-03-15T04:36:15.616Z,6
2023-03-15T04:37:14.479Z,7
2023-03-15T04:38:14.621Z,7
2023-03-15T04:39:15.031Z,7
2023-03-15T04:40:14.395Z,7
2023-03-15T04:41:14.580Z,7
2023-03-15T04:42:14.787Z,4
2023-03-15T04:43:14.887Z,4
2023-03-15T04:44:14.115Z,4
2023-03-15T04:45:14.442Z,4
2023-03-15T04:46:14.914Z,4
2023-03-15T04:47:15.228Z,6
2023-03-15T04:48:14.239Z,6
2023-03-15T04:49:14.242Z,6
2023-03-15T04:50:14.665Z,6
2023-03-15T04:51:14.740Z,6
2023-03-15T04:52:15.013Z,7
2023-03-15T04:53:14.131Z,7
2023-03-15T04:54:14.887Z,7
2023-03-15T04:55:14.164Z,7
2023-03-15T04:57:14.608Z,7
2023-03-15T04:58:15.042Z,7
2023-03-15T04:59:14.273Z,7
2023-03-15T05:00:14.654Z,7
2023-03-15T05:01:15.190Z,7
2023-03-15T05:03:14.313Z,9
2023-03-15T05:04:14.230Z,9
2023-03-15T05:05:14.869Z,9
2023-03-15T05:06:15.032Z,9
2023-03-15T05:07:14.124Z,11
2023-03-15T05:08:14.590Z,11
2023-03-15T05:09:14.738Z,11
2023-03-15T05:10:15.029Z,11
2023-03-15T05:11:14.149Z,11
2023-03-15T05:12:14.350Z,11
2023-03-15T05:13:14.570Z,11
2023-03-15T05:14:15.112Z,11
2023-03-15T05:15:14.738Z,11
2023-03-15T05:16:14.727Z,11
2023-03-15T05:17:14.859Z,7
2023-03-15T05:18:15.107Z,7
2023-03-15T05:19:14.278Z,7
2023-03-15T05:20:14.644Z,7
2023-03-15T05:21:15.072Z,7
2023-03-15T05:22:14.235Z,8
2023-03-15T05:23:14.543Z,8
2023-03-15T05:24:14.962Z,8
2023-03-15T05:25:15.076Z,8
2023-03-15T05:26:14.178Z,8
2023-03-15T05:27:14.371Z,9
2023-03-15T05:28:14.868Z,9
2023-03-15T05:29:14.955Z,9
2023-03-15T05:30:14.093Z,9
2023-03-15T05:31:14.931Z,9
2023-03-15T05:32:15.507Z,8
2023-03-15T05:33:14.335Z,8
2023-03-15T05:34:14.372Z,8
2023-03-15T05:35:14.833Z,8
2023-03-15T05:36:14.646Z,8
2023-03-15T05:37:14.225Z,11
2023-03-15T05:38:14.453Z,11
2023-03-15T05:39:14.657Z,11
2023-03-15T05:40:14.724Z,11
2023-03-15T05:41:14.493Z,11
2023-03-15T05:42:15.090Z,9
2023-03-15T05:43:14.329Z,9
2023-03-15T05:44:14.437Z,9
2023-03-15T05:45:15.022Z,9
2023-03-15T05:46:14.638Z,9
2023-03-15T05:47:14.633Z,9
2023-03-15T05:48:14.924Z,9
2023-03-15T05:49:15.007Z,9
2023-03-15T05:50:14.542Z,9
2023-03-15T05:51:14.620Z,9
2023-03-15T05:52:14.921Z,17
2023-03-15T05:53:14.871Z,17
2023-03-15T05:54:14.378Z,17
2023-03-15T05:55:14.314Z,17
2023-03-15T05:56:14.915Z,17
2023-03-15T05:57:14.265Z,13
2023-03-15T05:58:14.194Z,13
2023-03-15T05:59:14.680Z,13
2023-03-15T06:00:14.892Z,13
2023-03-15T06:01:14.208Z,13
2023-03-15T06:02:14.658Z,14
2023-03-15T06:03:14.965Z,14
2023-03-15T06:04:15.279Z,14
2023-03-15T06:05:13.859Z,14
2023-03-15T06:06:14.343Z,14
2023-03-15T06:07:14.350Z,12
2023-03-15T06:08:14.440Z,12
2023-03-15T06:09:15.001Z,12
2023-03-15T06:10:14.210Z,12
2023-03-15T06:11:14.246Z,12
2023-03-15T06:12:14.398Z,12
2023-03-15T06:13:16.583Z,12
2023-03-15T06:14:14.235Z,12
2023-03-15T06:15:14.445Z,12
2023-03-15T06:16:14.741Z,12
2023-03-15T06:17:14.820Z,17
2023-03-15T06:18:14.228Z,17
2023-03-15T06:19:14.702Z,17
2023-03-15T06:20:14.884Z,17
2023-03-15T06:21:14.316Z,17
2023-03-15T06:22:14.635Z,18
2023-03-15T06:23:14.705Z,18
2023-03-15T06:24:14.794Z,18
2023-03-15T06:25:14.220Z,18
2023-03-15T06:26:14.439Z,18
2023-03-15T06:27:14.641Z,12
2023-03-15T06:28:15.013Z,12
2023-03-15T06:29:15.083Z,12
2023-03-15T06:30:15.941Z,12
2023-03-15T06:31:14.566Z,12
2023-03-15T06:32:14.944Z,12
2023-03-15T06:33:15.064Z,12
2023-03-15T06:34:14.059Z,12
2023-03-15T06:35:14.742Z,12
2023-03-15T06:36:15.419Z,12
2023-03-15T06:37:22.690Z,13
2023-03-15T06:39:14.715Z,13
2023-03-15T06:40:14.737Z,13
2023-03-15T06:41:14.281Z,13
2023-03-15T06:42:14.583Z,14
2023-03-15T06:43:14.844Z,14
2023-03-15T06:44:14.109Z,14
2023-03-15T06:45:14.555Z,14
2023-03-15T06:46:14.908Z,14
2023-03-15T06:47:14.971Z,17
2023-03-15T06:48:14.653Z,17
2023-03-15T06:49:14.946Z,17
2023-03-15T06:50:14.236Z,17
2023-03-15T06:51:14.664Z,17
2023-03-15T06:52:14.971Z,15
2023-03-15T06:53:14.131Z,15
2023-03-15T06:54:14.288Z,15
2023-03-15T06:55:14.816Z,15
2023-03-15T06:56:14.127Z,15
2023-03-15T06:57:14.368Z,20
2023-03-15T06:58:14.664Z,20
2023-03-15T06:59:14.854Z,20
2023-03-15T07:00:14.383Z,20
2023-03-15T07:01:14.665Z,20
2023-03-15T07:02:14.693Z,17
2023-03-15T07:03:15.026Z,17
2023-03-15T07:04:16.586Z,17
2023-03-15T07:05:14.392Z,17
2023-03-15T07:06:14.724Z,17
2023-03-15T07:07:14.339Z,17
2023-03-15T07:08:14.408Z,17
2023-03-15T07:09:14.845Z,17
2023-03-15T07:10:14.899Z,17
2023-03-15T07:11:14.546Z,17
2023-03-15T07:12:14.807Z,14
2023-03-15T07:13:14.540Z,14
2023-03-15T07:14:14.797Z,14
2023-03-15T07:15:16.688Z,14
2023-03-15T07:16:15.034Z,14
2023-03-15T07:17:14.741Z,8
2023-03-15T07:18:14.877Z,8
2023-03-15T07:19:14.143Z,8
2023-03-15T07:20:14.464Z,8
2023-03-15T07:21:14.661Z,8
2023-03-15T07:22:15.143Z,11
2023-03-15T07:23:14.394Z,11
2023-03-15T07:24:14.356Z,11
2023-03-15T07:25:14.862Z,11
2023-03-15T07:26:14.265Z,11
2023-03-15T07:27:15.384Z,11
2023-03-15T07:28:14.475Z,11
2023-03-15T07:29:14.929Z,11
2023-03-15T07:30:14.316Z,11
2023-03-15T07:31:14.637Z,11
2023-03-15T07:32:15.379Z,9
2023-03-15T07:33:14.914Z,9
2023-03-15T07:34:14.572Z,9
2023-03-15T07:36:14.412Z,9
2023-03-15T07:37:14.637Z,13
2023-03-15T07:38:14.616Z,13
2023-03-15T07:39:14.415Z,13
2023-03-15T07:40:14.487Z,13
2023-03-15T07:41:14.308Z,13
2023-03-15T07:42:15.002Z,13
2023-03-15T07:43:14.016Z,13
2023-03-15T07:44:14.359Z,13
2023-03-15T07:45:14.546Z,13
2023-03-15T07:46:14.282Z,13
2023-03-15T07:47:14.484Z,13
2023-03-15T07:48:14.822Z,13
2023-03-15T07:49:14.888Z,13
2023-03-15T07:50:16.499Z,13
2023-03-15T07:51:15.167Z,13
2023-03-15T07:52:14.932Z,12
2023-03-15T07:53:14.310Z,12
2023-03-15T07:54:14.776Z,12
2023-03-15T07:55:14.849Z,12
2023-03-15T07:56:14.805Z,12
2023-03-15T07:57:15.222Z,17
2023-03-15T07:58:14.396Z,17
2023-03-15T07:59:14.570Z,17
2023-03-15T08:00:14.952Z,17
2023-03-15T08:01:15.022Z,17
2023-03-15T08:03:14.497Z,15
2023-03-15T08:04:14.914Z,15
2023-03-15T08:05:14.908Z,15
2023-03-15T08:06:14.828Z,15
2023-03-15T08:07:14.098Z,13
2023-03-15T08:08:14.377Z,13
2023-03-15T08:09:14.908Z,13
2023-03-15T08:10:15.134Z,13
2023-03-15T08:11:14.288Z,13
2023-03-15T08:12:14.687Z,12
2023-03-15T08:13:14.964Z,12
2023-03-15T08:14:14.307Z,12
2023-03-15T08:15:14.388Z,12
2023-03-15T08:16:15.134Z,12
2023-03-15T08:17:14.019Z,8
2023-03-15T08:19:14.435Z,8
2023-03-15T08:20:14.918Z,8
2023-03-15T08:21:15.108Z,8
2023-03-15T08:22:14.360Z,7
2023-03-15T08:23:14.579Z,7
2023-03-15T08:24:14.706Z,7
2023-03-15T08:25:15.087Z,7
2023-03-15T08:26:14.525Z,7
2023-03-15T08:27:14.999Z,17
2023-03-15T08:28:14.815Z,17
2023-03-15T08:29:14.158Z,17
2023-03-15T08:30:14.816Z,17
2023-03-15T08:31:14.890Z,17
2023-03-15T08:32:14.545Z,17
2023-03-15T08:33:14.946Z,17
2023-03-15T08:34:14.787Z,17
2023-03-15T08:35:15.589Z,17
2023-03-15T08:36:14.633Z,17
2023-03-15T08:37:14.922Z,13
2023-03-15T08:38:14.369Z,13
2023-03-15T08:39:14.723Z,13
2023-03-15T08:40:14.756Z,13
2023-03-15T08:41:14.796Z,13
2023-03-15T08:42:14.111Z,11
2023-03-15T08:43:14.205Z,11
2023-03-15T08:44:14.510Z,11
2023-03-15T08:45:14.828Z,11
2023-03-15T08:46:15.124Z,11
2023-03-15T08:47:14.651Z,11
2023-03-15T08:48:14.872Z,11
2023-03-15T08:49:15.036Z,11
2023-03-15T08:50:14.325Z,11
2023-03-15T08:51:14.532Z,11
2023-03-15T08:52:15.014Z,19
2023-03-15T08:53:14.618Z,19
2023-03-15T08:54:14.839Z,19
2023-03-15T08:55:14.179Z,19
2023-03-15T08:56:14.792Z,19
2023-03-15T08:57:14.823Z,23
2023-03-15T08:59:32.264Z,23
2023-03-15T09:00:14.635Z,23
2023-03-15T09:01:14.083Z,23
2023-03-15T09:02:14.872Z,14
2023-03-15T09:03:14.659Z,14
2023-03-15T09:04:14.316Z,14
2023-03-15T09:05:14.571Z,14
2023-03-15T09:06:14.581Z,14
2023-03-15T09:07:14.778Z,21
2023-03-15T09:08:15.206Z,21
2023-03-15T09:09:14.442Z,21
2023-03-15T09:11:14.576Z,21
2023-03-15T09:12:14.730Z,20
2023-03-15T09:13:15.404Z,20
2023-03-15T09:14:14.102Z,20
2023-03-15T09:16:14.281Z,20
2023-03-15T09:17:14.798Z,20
2023-03-15T09:18:14.328Z,20
2023-03-15T09:19:14.599Z,20
2023-03-15T09:20:14.833Z,20
2023-03-15T09:21:14.733Z,20
2023-03-15T09:22:47.930Z,18
2023-03-15T09:42:17.137Z,21
2023-03-15T09:54:14.528Z,17
2023-03-15T10:21:17.587Z,19
2023-03-15T10:31:36.730Z,13
2023-03-15T10:36:24.079Z,24
2023-03-15T10:41:29.300Z,27
2023-03-15T10:47:33.165Z,21
2023-03-15T10:52:14.195Z,18
2023-03-15T10:55:17.195Z,18
2023-03-15T10:58:14.815Z,19
2023-03-15T10:59:25.397Z,19
2023-03-15T11:16:14.885Z,20
2023-03-15T11:21:14.378Z,15
2023-03-15T11:22:14.812Z,23
2023-03-15T11:23:14.944Z,23
2023-03-15T11:24:14.116Z,23
2023-03-15T11:25:14.512Z,23
2023-03-15T11:26:32.119Z,23
2023-03-15T11:27:14.499Z,18
2023-03-15T11:28:14.704Z,18
2023-03-15T11:29:14.044Z,18
2023-03-15T11:30:14.083Z,18
2023-03-15T11:31:15.339Z,18
2023-03-15T11:32:14.147Z,17
2023-03-15T11:33:14.363Z,17
2023-03-15T11:34:14.669Z,17
2023-03-15T11:35:14.985Z,17
2023-03-15T11:36:16.463Z,17
2023-03-15T11:37:19.469Z,13
2023-03-15T11:38:24.207Z,13
2023-03-15T11:39:14.250Z,13
2023-03-15T11:40:23.438Z,13
2023-03-15T11:41:14.451Z,13
2023-03-15T11:42:16.837Z,19
2023-03-15T11:43:14.224Z,19
2023-03-15T11:44:14.499Z,19
2023-03-15T11:45:14.996Z,19
2023-03-15T11:46:14.723Z,19
2023-03-15T11:47:14.466Z,25
2023-03-15T11:48:14.694Z,25
2023-03-15T11:49:14.842Z,25
2023-03-15T11:50:14.247Z,25
2023-03-15T11:51:14.537Z,25
2023-03-15T11:52:14.365Z,19
2023-03-15T11:53:14.597Z,19
2023-03-15T11:54:14.572Z,19
2023-03-15T11:55:14.910Z,19
2023-03-15T11:56:14.056Z,19
2023-03-15T11:57:14.354Z,15
2023-03-15T11:58:14.297Z,15
2023-03-15T11:59:14.720Z,15
2023-03-15T12:00:14.486Z,15
2023-03-15T12:01:14.229Z,15
2023-03-15T12:02:14.678Z,21
2023-03-15T12:03:14.932Z,21
2023-03-15T12:04:15.856Z,21
2023-03-15T12:05:26.386Z,21
2023-03-15T12:06:14.626Z,21
2023-03-15T12:07:14.046Z,17
2023-03-15T12:08:14.283Z,17
2023-03-15T12:09:14.411Z,17
2023-03-15T12:10:14.886Z,17
2023-03-15T12:11:14.346Z,17
2023-03-15T12:12:14.689Z,17
2023-03-15T12:13:14.969Z,17
2023-03-15T12:14:15.083Z,17
2023-03-15T12:15:14.724Z,17
2023-03-15T12:16:14.824Z,17
2023-03-15T12:17:14.830Z,19
2023-03-15T12:18:14.195Z,19
2023-03-15T12:19:14.338Z,19
2023-03-15T12:20:14.596Z,19
2023-03-15T12:21:14.418Z,19
2023-03-15T12:22:14.623Z,18
2023-03-15T12:23:14.841Z,18
2023-03-15T12:24:15.011Z,18
2023-03-15T12:25:14.463Z,18
2023-03-15T12:26:14.817Z,18
2023-03-15T12:27:14.036Z,23
2023-03-15T12:28:14.366Z,23
2023-03-15T12:29:14.545Z,23
2023-03-15T12:30:14.896Z,23
2023-03-15T12:31:14.375Z,23
2023-03-15T12:32:14.428Z,18
2023-03-15T12:33:14.578Z,18
2023-03-15T12:34:14.865Z,18
2023-03-15T12:35:15.637Z,18
2023-03-15T12:36:14.419Z,18
2023-03-15T12:37:14.970Z,17
2023-03-15T12:38:14.976Z,17
2023-03-15T12:39:14.540Z,17
2023-03-15T12:40:14.598Z,17
2023-03-15T12:41:14.025Z,17
2023-03-15T12:42:14.726Z,19
2023-03-15T12:43:14.934Z,19
2023-03-15T12:44:14.166Z,19
2023-03-15T12:45:14.312Z,19
2023-03-15T12:46:15.217Z,19
2023-03-15T12:47:14.971Z,15
2023-03-15T12:48:14.132Z,15
2023-03-15T12:49:14.275Z,15
2023-03-15T12:50:14.455Z,15
2023-03-15T12:51:14.389Z,15
2023-03-15T12:52:14.827Z,18
2023-03-15T12:53:14.102Z,18
2023-03-15T12:54:14.600Z,18
2023-03-15T13:10:15.523Z,18
2023-03-15T13:14:14.710Z,17
2023-03-15T13:17:16.117Z,17
2023-03-15T13:37:14.561Z,18
2023-03-15T13:38:14.844Z,18
2023-03-15T13:40:14.694Z,18
2023-03-15T13:49:14.108Z,17
2023-03-15T13:59:14.026Z,20
2023-03-15T14:00:14.516Z,20
2023-03-15T14:04:14.332Z,17
2023-03-15T14:06:14.966Z,17
2023-03-15T14:23:13.927Z,30
2023-03-15T14:28:14.521Z,18
2023-03-15T14:36:17.253Z,24
2023-03-15T14:38:14.340Z,18
2023-03-15T14:49:14.627Z,15
2023-03-15T14:57:14.019Z,19
2023-03-15T15:24:14.001Z,14
2023-03-15T15:28:37.115Z,13
2023-03-15T15:30:22.461Z,13
2023-03-15T15:43:14.103Z,13
2023-03-15T15:47:14.315Z,11
2023-03-15T15:56:13.788Z,12
2023-03-15T16:00:14.077Z,15
2023-03-15T16:03:15.358Z,9
2023-03-15T16:04:14.314Z,9
2023-03-15T16:06:14.955Z,9
2023-03-15T16:07:15.059Z,13
2023-03-15T16:08:14.677Z,13
2023-03-15T16:10:14.357Z,13
2023-03-15T16:13:14.952Z,15
2023-03-15T16:15:14.482Z,15
2023-03-15T16:18:14.996Z,11
2023-03-15T16:22:14.605Z,8
2023-03-15T16:32:52.618Z,13
2023-03-15T16:47:14.889Z,12
2023-03-15T16:49:17.416Z,12
2023-03-15T16:54:51.626Z,14
2023-03-15T16:55:14.865Z,14
2023-03-15T16:56:14.958Z,14
2023-03-15T16:57:14.333Z,13
2023-03-15T16:58:14.645Z,13
2023-03-15T16:59:14.722Z,13
2023-03-15T17:01:14.334Z,13
2023-03-15T17:02:14.952Z,11
2023-03-15T17:03:15.366Z,11
2023-03-15T17:04:14.643Z,11
2023-03-15T17:05:14.546Z,11
2023-03-15T17:06:14.782Z,11
2023-03-15T17:07:14.442Z,9
2023-03-15T17:08:14.533Z,9
2023-03-15T17:09:14.657Z,9
2023-03-15T17:10:14.084Z,9
2023-03-15T17:11:14.568Z,9
2023-03-15T17:12:14.972Z,7
2023-03-15T17:13:14.166Z,7
2023-03-15T17:14:14.617Z,7
2023-03-15T17:15:14.661Z,7
2023-03-15T17:17:14.539Z,7
2023-03-15T17:18:14.701Z,7
2023-03-15T17:19:14.763Z,7
2023-03-15T17:20:15.137Z,7
2023-03-15T17:21:14.273Z,7
2023-03-15T17:22:14.621Z,6
2023-03-15T17:24:14.291Z,6
2023-03-15T17:25:14.873Z,6
2023-03-15T17:26:15.039Z,6
2023-03-15T17:27:13.984Z,6
2023-03-15T17:28:14.609Z,6
2023-03-15T17:29:14.655Z,6
2023-03-15T17:30:14.969Z,6
2023-03-15T17:31:36.611Z,6
2023-03-15T17:33:15.924Z,6
2023-03-15T17:45:14.219Z,6
2023-03-15T17:47:20.274Z,6
2023-03-15T17:55:16.249Z,8
2023-03-15T17:57:14.233Z,7
2023-03-15T17:59:14.849Z,7
2023-03-15T18:00:14.985Z,7
2023-03-15T18:03:14.894Z,5
2023-03-15T18:12:17.005Z,6
2023-03-15T18:18:17.627Z,4
2023-03-15T18:21:13.896Z,4
2023-03-15T18:39:15.698Z,5
2023-03-15T18:43:14.638Z,4
2023-03-15T18:47:17.786Z,4
2023-03-15T18:50:22.824Z,4
2023-03-15T18:53:16.410Z,4
2023-03-15T18:59:14.976Z,5
2023-03-15T19:07:14.257Z,4
2023-03-15T19:13:17.184Z,1
2023-03-15T19:30:17.275Z,4
2023-03-15T19:41:17.351Z,5
2023-03-15T19:44:14.384Z,5
2023-03-15T19:46:14.809Z,5
2023-03-15T19:48:16.864Z,4
2023-03-15T19:50:14.241Z,4
2023-03-15T19:57:14.471Z,3
2023-03-15T19:58:14.892Z,3
2023-03-15T20:06:14.575Z,0
2023-03-15T20:08:14.941Z,0
2023-03-15T20:29:14.334Z,6
2023-03-15T20:36:15.820Z,6
2023-03-15T20:43:16.747Z,5
2023-03-15T20:47:15.177Z,4
2023-03-15T20:54:14.895Z,4
2023-03-15T21:01:14.566Z,3
2023-03-15T21:04:14.998Z,1
2023-03-15T21:05:14.387Z,1
2023-03-15T21:13:17.808Z,0
2023-03-15T21:20:17.041Z,1
2023-03-15T21:33:15.690Z,0
2023-03-15T21:39:16.478Z,4
2023-03-15T21:43:14.033Z,4
2023-03-15T21:45:14.902Z,4
2023-03-15T21:46:15.940Z,4
2023-03-15T21:51:16.445Z,5
2023-03-15T22:07:14.178Z,0
2023-03-15T22:12:16.961Z,0
2023-03-15T22:15:18.903Z,0
2023-03-15T22:27:14.158Z,3
2023-03-15T22:34:17.359Z,1
2023-03-15T22:51:14.811Z,1
2023-03-15T22:52:14.114Z,3
2023-03-15T23:01:14.608Z,0
2023-03-15T23:03:14.808Z,0
2023-03-15T23:04:14.471Z,0
2023-03-15T23:15:16.691Z,0
2023-03-15T23:23:14.695Z,0
2023-03-15T23:25:14.097Z,0
2023-03-15T23:27:14.404Z,0
2023-03-15T23:38:14.441Z,0
2023-03-15T23:40:15.066Z,0
2023-03-15T23:47:14.540Z,1
2023-03-15T23:49:14.311Z,1
